Airfield :







YOU CAN JOIN US ON...

 
LOGIN :

Register | Disclaimer

   EN    FR    IT 

 









Legend :    VFR   Marginal VFR   IFR   Intensive IFR   Very Intensive IFR
Visi :
Ceiling :
>= 8 km
>= 3000ft
5 to 8 km
1000 to 3000 ft
1500m to 5 km
500 to 1000 ft
800 to 1500m
200 to 500 ft
< 800m
< 200 ft
Symbols :   Thunderstorms  Fog  Heavy snow  Heavy precipitations  Wind > 20 kt







- Airport Elevation : 328 ft


KGFL - Floyd Bennett Memorial

CURRENT METAR :
  • 240053Z AUTO 27008KT 10SM CLR 01/M12 A3004 RMK AO2 SLP182 T00061122

EXPIRED METARs :
  • 232353Z AUTO 26008KT 10SM CLR 01/M12 A3001 RMK AO2 SLP172 T00061117 10050 20006 53036
  • 232253Z AUTO 27008KT 10SM CLR 02/M12 A2998 RMK AO2 SLP159 T00221122

TAF KGFL
Valid from the 24 at 00:00 until the 25 at 00:00 UTC


232321Z 2400/2424 29008KT P6SM SKC
FM241600 22008KT P6SM SCT200
KZBW FIR / North America



MET'MAP, your aeronautical weather chart ! - Copyright ORBIFLY December 2007 - Disclaimer

ORBIFLY MET'MAP TEAM :

Programming & Development : Alexandra Zaïnal
Concept & Development : Baudouin d'Aumeries
Co-Development & Prog : Marc-Olivier Méhu
Technical & hardware support : Manuel Goepfert

Contact : metmap@orbifly.com




SOURCES & CREDITS :

   NOAA